sensor_id;sensor_type;location;lat;lon;timestamp;pressure;altitude;pressure_sealevel;temperature;humidity
9235;BME280;4652;42.716;23.218;2023-05-16T00:00:03;94563.91;;;12.82;100.00
9235;BME280;4652;42.716;23.218;2023-05-16T00:06:48;94555.28;;;12.49;100.00
9235;BME280;4652;42.716;23.218;2023-05-16T00:13:31;94556.44;;;12.57;100.00
9235;BME280;4652;42.716;23.218;2023-05-16T00:20:13;94558.28;;;12.70;100.00
9235;BME280;4652;42.716;23.218;2023-05-16T00:26:58;94550.09;;;12.83;100.00
9235;BME280;4652;42.716;23.218;2023-05-16T00:33:41;94533.13;;;12.91;100.00
9235;BME280;4652;42.716;23.218;2023-05-16T00:40:23;94531.28;;;13.01;100.00
9235;BME280;4652;42.716;23.218;2023-05-16T00:47:05;94512.66;;;12.99;100.00
9235;BME280;4652;42.716;23.218;2023-05-16T00:53:49;94514.22;;;12.91;100.00
9235;BME280;4652;42.716;23.218;2023-05-16T01:25:12;94482.28;;;13.02;100.00
9235;BME280;4652;42.716;23.218;2023-05-16T01:32:00;94505.16;;;12.96;100.00
9235;BME280;4652;42.716;23.218;2023-05-16T01:38:47;94486.28;;;12.74;100.00
9235;BME280;4652;42.716;23.218;2023-05-16T01:45:33;94469.47;;;12.77;100.00
9235;BME280;4652;42.716;23.218;2023-05-16T01:52:23;94468.84;;;12.80;100.00
9235;BME280;4652;42.716;23.218;2023-05-16T01:59:07;94461.84;;;12.79;100.00
9235;BME280;4652;42.716;23.218;2023-05-16T02:05:51;94463.16;;;12.90;100.00
9235;BME280;4652;42.716;23.218;2023-05-16T02:12:35;94456.03;;;12.94;100.00
9235;BME280;4652;42.716;23.218;2023-05-16T02:19:17;94455.72;;;12.95;100.00
9235;BME280;4652;42.716;23.218;2023-05-16T02:26:00;94457.75;;;12.90;100.00
9235;BME280;4652;42.716;23.218;2023-05-16T02:32:43;94459.94;;;13.10;100.00
9235;BME280;4652;42.716;23.218;2023-05-16T02:39:24;94463.06;;;13.04;100.00
9235;BME280;4652;42.716;23.218;2023-05-16T02:46:19;94458.28;;;13.01;100.00
9235;BME280;4652;42.716;23.218;2023-05-16T02:53:03;94447.94;;;12.94;100.00
9235;BME280;4652;42.716;23.218;2023-05-16T02:59:45;94451.09;;;12.96;100.00
9235;BME280;4652;42.716;23.218;2023-05-16T03:06:27;94438.06;;;12.98;100.00
9235;BME280;4652;42.716;23.218;2023-05-16T03:13:11;94450.28;;;12.87;100.00
9235;BME280;4652;42.716;23.218;2023-05-16T03:19:53;94442.31;;;12.82;100.00
9235;BME280;4652;42.716;23.218;2023-05-16T03:26:34;94437.66;;;12.74;100.00
9235;BME280;4652;42.716;23.218;2023-05-16T03:33:18;94440.41;;;12.82;100.00
9235;BME280;4652;42.716;23.218;2023-05-16T03:40:00;94438.69;;;12.86;100.00
9235;BME280;4652;42.716;23.218;2023-05-16T03:46:45;94431.91;;;12.98;100.00
9235;BME280;4652;42.716;23.218;2023-05-16T03:53:28;94425.34;;;12.98;100.00
9235;BME280;4652;42.716;23.218;2023-05-16T04:00:11;94426.63;;;13.01;100.00
9235;BME280;4652;42.716;23.218;2023-05-16T04:06:53;94435.69;;;12.96;100.00
9235;BME280;4652;42.716;23.218;2023-05-16T04:13:36;94437.22;;;13.11;100.00
9235;BME280;4652;42.716;23.218;2023-05-16T04:20:18;94440.22;;;13.10;100.00
9235;BME280;4652;42.716;23.218;2023-05-16T04:27:00;94445.66;;;13.18;100.00
9235;BME280;4652;42.716;23.218;2023-05-16T04:33:45;94441.88;;;13.28;100.00
9235;BME280;4652;42.716;23.218;2023-05-16T04:40:27;94446.16;;;13.37;100.00
9235;BME280;4652;42.716;23.218;2023-05-16T04:47:09;94418.97;;;13.42;100.00
9235;BME280;4652;42.716;23.218;2023-05-16T04:53:52;94447.63;;;13.52;100.00
9235;BME280;4652;42.716;23.218;2023-05-16T05:00:34;94423.75;;;13.54;100.00
9235;BME280;4652;42.716;23.218;2023-05-16T05:07:17;94430.63;;;13.69;100.00
9235;BME280;4652;42.716;23.218;2023-05-16T05:14:00;94426.94;;;13.73;100.00
9235;BME280;4652;42.716;23.218;2023-05-16T05:20:43;94416.28;;;13.77;100.00
9235;BME280;4652;42.716;23.218;2023-05-16T05:27:25;94420.28;;;13.88;100.00
9235;BME280;4652;42.716;23.218;2023-05-16T05:34:08;94417.22;;;13.98;100.00
9235;BME280;4652;42.716;23.218;2023-05-16T05:40:50;94412.94;;;14.05;100.00
9235;BME280;4652;42.716;23.218;2023-05-16T05:47:32;94398.09;;;14.11;100.00
9235;BME280;4652;42.716;23.218;2023-05-16T05:54:16;94390.13;;;14.15;100.00
9235;BME280;4652;42.716;23.218;2023-05-16T06:00:58;94406.03;;;14.25;100.00
9235;BME280;4652;42.716;23.218;2023-05-16T06:07:40;94407.19;;;14.24;100.00
9235;BME280;4652;42.716;23.218;2023-05-16T06:14:24;94392.38;;;14.22;100.00
9235;BME280;4652;42.716;23.218;2023-05-16T06:21:06;94405.03;;;14.55;100.00
9235;BME280;4652;42.716;23.218;2023-05-16T06:27:48;94403.69;;;14.79;100.00
9235;BME280;4652;42.716;23.218;2023-05-16T06:34:31;94395.84;;;14.86;100.00
9235;BME280;4652;42.716;23.218;2023-05-16T06:41:13;94396.41;;;15.00;100.00
9235;BME280;4652;42.716;23.218;2023-05-16T06:47:55;94368.94;;;15.10;100.00
9235;BME280;4652;42.716;23.218;2023-05-16T06:54:39;94346.09;;;15.11;100.00
9235;BME280;4652;42.716;23.218;2023-05-16T09:51:50;94247.22;;;19.24;100.00
9235;BME280;4652;42.716;23.218;2023-05-16T09:58:34;94242.59;;;19.44;100.00
9235;BME280;4652;42.716;23.218;2023-05-16T10:05:16;94253.22;;;19.87;98.58
9235;BME280;4652;42.716;23.218;2023-05-16T10:12:02;94236.25;;;19.78;93.74
9235;BME280;4652;42.716;23.218;2023-05-16T10:18:44;94233.00;;;19.72;91.29
9235;BME280;4652;42.716;23.218;2023-05-16T10:25:31;94240.56;;;19.41;96.76
9235;BME280;4652;42.716;23.218;2023-05-16T10:32:15;94230.94;;;19.12;98.52
9235;BME280;4652;42.716;23.218;2023-05-16T10:38:58;94211.84;;;19.12;100.00
9235;BME280;4652;42.716;23.218;2023-05-16T10:45:40;94217.81;;;19.17;98.50
9235;BME280;4652;42.716;23.218;2023-05-16T10:52:32;94213.63;;;19.39;97.36
9235;BME280;4652;42.716;23.218;2023-05-16T10:59:24;94220.44;;;19.68;98.27
9235;BME280;4652;42.716;23.218;2023-05-16T11:06:08;94240.88;;;19.74;95.24
9235;BME280;4652;42.716;23.218;2023-05-16T11:12:51;94235.78;;;19.38;100.00
9235;BME280;4652;42.716;23.218;2023-05-16T11:19:39;94237.91;;;19.09;100.00
9235;BME280;4652;42.716;23.218;2023-05-16T11:26:21;94259.03;;;19.12;100.00
9235;BME280;4652;42.716;23.218;2023-05-16T11:33:04;94238.94;;;19.20;100.00
9235;BME280;4652;42.716;23.218;2023-05-16T11:39:46;94220.50;;;18.98;100.00
9235;BME280;4652;42.716;23.218;2023-05-16T11:46:28;94220.69;;;19.05;100.00
9235;BME280;4652;42.716;23.218;2023-05-16T11:53:12;94214.34;;;19.01;100.00
9235;BME280;4652;42.716;23.218;2023-05-16T11:59:53;94239.88;;;19.63;100.00
9235;BME280;4652;42.716;23.218;2023-05-16T12:06:35;94202.25;;;20.40;96.39
9235;BME280;4652;42.716;23.218;2023-05-16T12:13:21;94175.31;;;20.19;98.77
9235;BME280;4652;42.716;23.218;2023-05-16T12:20:04;94185.88;;;19.98;97.54
9235;BME280;4652;42.716;23.218;2023-05-16T12:26:47;94181.56;;;20.20;91.21
9235;BME280;4652;42.716;23.218;2023-05-16T12:33:36;94191.56;;;20.54;90.91
9235;BME280;4652;42.716;23.218;2023-05-16T12:40:18;94198.31;;;20.37;92.26
9235;BME280;4652;42.716;23.218;2023-05-16T12:47:01;94199.69;;;20.28;100.00
9235;BME280;4652;42.716;23.218;2023-05-16T12:53:46;94209.69;;;20.20;100.00
9235;BME280;4652;42.716;23.218;2023-05-16T14:11:46;94276.97;;;18.94;100.00
9235;BME280;4652;42.716;23.218;2023-05-16T14:18:29;94276.56;;;18.61;100.00
9235;BME280;4652;42.716;23.218;2023-05-16T14:25:11;94284.28;;;18.74;100.00
9235;BME280;4652;42.716;23.218;2023-05-16T14:31:54;94288.41;;;18.84;100.00
9235;BME280;4652;42.716;23.218;2023-05-16T14:38:36;94282.41;;;18.78;100.00
9235;BME280;4652;42.716;23.218;2023-05-16T14:45:18;94293.56;;;18.27;100.00
9235;BME280;4652;42.716;23.218;2023-05-16T14:52:02;94308.84;;;17.88;100.00
9235;BME280;4652;42.716;23.218;2023-05-16T14:58:44;94316.91;;;17.84;100.00
9235;BME280;4652;42.716;23.218;2023-05-16T15:05:26;94321.03;;;17.78;100.00
9235;BME280;4652;42.716;23.218;2023-05-16T15:12:10;94312.22;;;17.69;100.00
9235;BME280;4652;42.716;23.218;2023-05-16T15:18:52;94312.28;;;17.45;100.00
9235;BME280;4652;42.716;23.218;2023-05-16T15:25:34;94294.47;;;17.35;100.00
9235;BME280;4652;42.716;23.218;2023-05-16T15:32:17;94295.34;;;17.64;100.00
9235;BME280;4652;42.716;23.218;2023-05-16T15:38:59;94292.28;;;17.53;100.00
9235;BME280;4652;42.716;23.218;2023-05-16T15:45:42;94290.38;;;17.41;100.00
9235;BME280;4652;42.716;23.218;2023-05-16T15:52:25;94272.22;;;17.06;100.00
9235;BME280;4652;42.716;23.218;2023-05-16T15:59:07;94242.69;;;16.56;100.00
9235;BME280;4652;42.716;23.218;2023-05-16T16:05:50;94229.28;;;16.38;100.00
9235;BME280;4652;42.716;23.218;2023-05-16T16:12:33;94204.25;;;16.33;100.00
9235;BME280;4652;42.716;23.218;2023-05-16T16:19:16;94212.06;;;16.22;100.00
9235;BME280;4652;42.716;23.218;2023-05-16T16:25:59;94245.13;;;16.24;100.00
9235;BME280;4652;42.716;23.218;2023-05-16T16:32:42;94262.66;;;16.27;100.00
9235;BME280;4652;42.716;23.218;2023-05-16T16:39:24;94262.44;;;16.20;100.00
9235;BME280;4652;42.716;23.218;2023-05-16T16:46:06;94255.00;;;16.29;100.00
9235;BME280;4652;42.716;23.218;2023-05-16T16:52:50;94242.66;;;16.31;100.00
9235;BME280;4652;42.716;23.218;2023-05-16T16:59:33;94233.94;;;16.26;100.00
9235;BME280;4652;42.716;23.218;2023-05-16T17:06:15;94222.16;;;16.46;100.00
9235;BME280;4652;42.716;23.218;2023-05-16T17:12:59;94221.50;;;16.61;100.00
9235;BME280;4652;42.716;23.218;2023-05-16T17:19:46;94216.50;;;16.75;100.00
9235;BME280;4652;42.716;23.218;2023-05-16T17:26:28;94202.69;;;16.68;100.00
9235;BME280;4652;42.716;23.218;2023-05-16T17:33:12;94197.47;;;16.63;100.00
9235;BME280;4652;42.716;23.218;2023-05-16T17:39:54;94187.72;;;16.38;100.00
9235;BME280;4652;42.716;23.218;2023-05-16T17:46:36;94211.38;;;16.50;100.00
9235;BME280;4652;42.716;23.218;2023-05-16T17:53:20;94194.50;;;16.08;100.00
9235;BME280;4652;42.716;23.218;2023-05-16T18:00:04;94180.03;;;16.16;100.00
9235;BME280;4652;42.716;23.218;2023-05-16T18:06:47;94217.84;;;16.09;100.00
9235;BME280;4652;42.716;23.218;2023-05-16T18:13:33;94219.78;;;16.20;100.00
9235;BME280;4652;42.716;23.218;2023-05-16T18:20:15;94168.59;;;16.10;100.00
9235;BME280;4652;42.716;23.218;2023-05-16T18:26:57;94196.13;;;16.21;100.00
9235;BME280;4652;42.716;23.218;2023-05-16T18:33:42;94205.63;;;16.27;100.00
9235;BME280;4652;42.716;23.218;2023-05-16T18:40:24;94153.66;;;15.92;100.00
9235;BME280;4652;42.716;23.218;2023-05-16T18:47:06;94173.34;;;15.89;100.00
9235;BME280;4652;42.716;23.218;2023-05-16T18:53:49;94169.81;;;15.88;100.00
9235;BME280;4652;42.716;23.218;2023-05-16T20:58:28;94227.44;;;15.49;100.00
9235;BME280;4652;42.716;23.218;2023-05-16T21:05:10;94224.38;;;15.30;100.00
9235;BME280;4652;42.716;23.218;2023-05-16T21:11:52;94238.75;;;15.10;100.00
9235;BME280;4652;42.716;23.218;2023-05-16T21:18:35;94241.72;;;15.17;100.00
9235;BME280;4652;42.716;23.218;2023-05-16T21:25:17;94211.97;;;15.08;100.00
9235;BME280;4652;42.716;23.218;2023-05-16T21:31:59;94220.63;;;15.22;100.00
9235;BME280;4652;42.716;23.218;2023-05-16T21:38:42;94223.88;;;15.16;100.00
9235;BME280;4652;42.716;23.218;2023-05-16T21:45:24;94233.28;;;15.18;100.00
9235;BME280;4652;42.716;23.218;2023-05-16T21:52:06;94235.75;;;15.03;100.00
9235;BME280;4652;42.716;23.218;2023-05-16T21:58:49;94261.97;;;14.99;100.00
9235;BME280;4652;42.716;23.218;2023-05-16T22:05:31;94259.06;;;15.04;100.00
9235;BME280;4652;42.716;23.218;2023-05-16T22:12:13;94250.38;;;14.90;100.00
9235;BME280;4652;42.716;23.218;2023-05-16T22:18:56;94255.34;;;14.88;100.00
9235;BME280;4652;42.716;23.218;2023-05-16T22:25:38;94249.38;;;14.74;100.00
9235;BME280;4652;42.716;23.218;2023-05-16T22:32:20;94245.09;;;14.43;100.00
9235;BME280;4652;42.716;23.218;2023-05-16T22:39:04;94260.50;;;14.13;100.00
9235;BME280;4652;42.716;23.218;2023-05-16T22:45:46;94255.97;;;14.26;100.00
9235;BME280;4652;42.716;23.218;2023-05-16T22:52:30;94254.16;;;14.01;100.00
9235;BME280;4652;42.716;23.218;2023-05-16T22:59:14;94283.44;;;14.16;100.00
9235;BME280;4652;42.716;23.218;2023-05-16T23:05:55;94244.72;;;14.16;100.00
9235;BME280;4652;42.716;23.218;2023-05-16T23:12:38;94255.78;;;14.31;100.00
9235;BME280;4652;42.716;23.218;2023-05-16T23:19:21;94251.63;;;14.42;100.00
9235;BME280;4652;42.716;23.218;2023-05-16T23:26:03;94235.66;;;14.49;100.00
9235;BME280;4652;42.716;23.218;2023-05-16T23:32:45;94243.31;;;14.47;100.00
9235;BME280;4652;42.716;23.218;2023-05-16T23:39:28;94247.28;;;14.50;100.00
9235;BME280;4652;42.716;23.218;2023-05-16T23:46:10;94235.66;;;14.49;100.00
9235;BME280;4652;42.716;23.218;2023-05-16T23:52:52;94265.53;;;14.32;100.00
9235;BME280;4652;42.716;23.218;2023-05-16T23:59:36;94263.75;;;14.36;100.00
